EKKO weather

Korsør Airport
Korsør, Zealand, Denmark

Public forecast

Using degrees Celsius for public forecast. Weather courtesy of forecast.io.

METAR (pilot weather report)

Report is more than 6 hours old.

Closest report is Avnø Air Base, 24.0 nm (44.5 km) SE. Retrieved 2016/10/04 04:20 UTC (3 years ago):

EKAV 040420Z AUTO ///// 9999NDV NCD ///// Q1039

TAF (pilot weather forecast)

Closest forecast is Copenhagen Kastrup Airport, 51.0 nm (94.4 km) ENE. Retrieved 2019/07/23 18:30 UTC (58 minutes ago):

TAF EKCH 231705Z 2318/2418 03010KT 9999 FEW030 BECMG 2319/2321 VRB03KT TEMPO 2400/2406 0800 BCFG BKN002